sensor_id;sensor_type;location;lat;lon;timestamp;pressure;altitude;pressure_sealevel;temperature;humidity
46718;BME280;32448;44.960;-0.698;2022-08-21T00:02:16;101572.81;;;19.68;100.00
46718;BME280;32448;44.960;-0.698;2022-08-21T00:04:42;101564.84;;;19.67;100.00
46718;BME280;32448;44.960;-0.698;2022-08-21T00:07:07;101569.25;;;19.72;100.00
46718;BME280;32448;44.960;-0.698;2022-08-21T00:09:33;101571.97;;;19.66;100.00
46718;BME280;32448;44.960;-0.698;2022-08-21T00:11:59;101567.50;;;19.68;100.00
46718;BME280;32448;44.960;-0.698;2022-08-21T00:14:24;101563.97;;;19.68;100.00
46718;BME280;32448;44.960;-0.698;2022-08-21T00:16:53;101562.19;;;19.70;100.00
46718;BME280;32448;44.960;-0.698;2022-08-21T00:19:18;101552.47;;;19.70;100.00
46718;BME280;32448;44.960;-0.698;2022-08-21T00:21:44;101553.34;;;19.68;100.00
46718;BME280;32448;44.960;-0.698;2022-08-21T00:24:11;101554.31;;;19.60;100.00
46718;BME280;32448;44.960;-0.698;2022-08-21T00:26:36;101542.91;;;19.51;100.00
46718;BME280;32448;44.960;-0.698;2022-08-21T00:29:03;101545.47;;;19.58;100.00
46718;BME280;32448;44.960;-0.698;2022-08-21T00:31:29;101549.00;;;19.57;100.00
46718;BME280;32448;44.960;-0.698;2022-08-21T00:33:54;101548.13;;;19.60;100.00
46718;BME280;32448;44.960;-0.698;2022-08-21T00:36:20;101527.88;;;19.50;100.00
46718;BME280;32448;44.960;-0.698;2022-08-21T00:38:45;101547.22;;;19.62;100.00
46718;BME280;32448;44.960;-0.698;2022-08-21T00:41:11;101558.72;;;19.63;100.00
46718;BME280;32448;44.960;-0.698;2022-08-21T00:43:38;101546.44;;;19.51;100.00
46718;BME280;32448;44.960;-0.698;2022-08-21T00:46:04;101551.78;;;19.36;100.00
46718;BME280;32448;44.960;-0.698;2022-08-21T00:48:31;101569.44;;;19.43;100.00
46718;BME280;32448;44.960;-0.698;2022-08-21T00:53:29;101574.75;;;19.39;100.00
46718;BME280;32448;44.960;-0.698;2022-08-21T00:55:57;101573.97;;;19.24;100.00
46718;BME280;32448;44.960;-0.698;2022-08-21T00:58:26;101578.34;;;19.32;100.00
46718;BME280;32448;44.960;-0.698;2022-08-21T01:00:53;101583.66;;;19.27;100.00
46718;BME280;32448;44.960;-0.698;2022-08-21T01:03:22;101568.72;;;19.15;100.00
46718;BME280;32448;44.960;-0.698;2022-08-21T01:05:48;101580.19;;;19.17;100.00
46718;BME280;32448;44.960;-0.698;2022-08-21T01:08:17;101581.91;;;19.26;100.00
46718;BME280;32448;44.960;-0.698;2022-08-21T01:10:43;101579.31;;;19.17;100.00
46718;BME280;32448;44.960;-0.698;2022-08-21T01:13:11;101581.03;;;19.24;100.00
46718;BME280;32448;44.960;-0.698;2022-08-21T01:15:42;101589.03;;;19.19;100.00
46718;BME280;32448;44.960;-0.698;2022-08-21T01:18:11;101586.38;;;19.21;100.00
46718;BME280;32448;44.960;-0.698;2022-08-21T01:20:38;101581.09;;;19.15;100.00
46718;BME280;32448;44.960;-0.698;2022-08-21T01:23:06;101580.25;;;19.05;100.00
46718;BME280;32448;44.960;-0.698;2022-08-21T01:25:33;101593.50;;;19.04;100.00
46718;BME280;32448;44.960;-0.698;2022-08-21T01:28:07;101580.25;;;19.02;100.00
46718;BME280;32448;44.960;-0.698;2022-08-21T01:30:35;101579.41;;;18.97;100.00
46718;BME280;32448;44.960;-0.698;2022-08-21T01:33:02;101576.72;;;19.02;100.00
46718;BME280;32448;44.960;-0.698;2022-08-21T01:35:28;101560.03;;;18.83;100.00
46718;BME280;32448;44.960;-0.698;2022-08-21T01:37:54;101575.84;;;19.04;100.00
46718;BME280;32448;44.960;-0.698;2022-08-21T01:40:20;101582.06;;;18.96;100.00
46718;BME280;32448;44.960;-0.698;2022-08-21T01:42:46;101560.94;;;18.80;100.00
46718;BME280;32448;44.960;-0.698;2022-08-21T01:45:14;101578.59;;;18.86;100.00
46718;BME280;32448;44.960;-0.698;2022-08-21T01:47:40;101571.56;;;18.77;100.00
46718;BME280;32448;44.960;-0.698;2022-08-21T01:50:07;101579.47;;;18.83;100.00
46718;BME280;32448;44.960;-0.698;2022-08-21T01:52:33;101570.63;;;18.83;100.00
46718;BME280;32448;44.960;-0.698;2022-08-21T01:54:59;101567.09;;;18.81;100.00
46718;BME280;32448;44.960;-0.698;2022-08-21T01:57:25;101561.84;;;18.70;100.00
46718;BME280;32448;44.960;-0.698;2022-08-21T01:59:50;101561.00;;;18.64;100.00
46718;BME280;32448;44.960;-0.698;2022-08-21T02:02:16;101557.47;;;18.65;100.00
46718;BME280;32448;44.960;-0.698;2022-08-21T02:04:42;101555.72;;;18.61;100.00
46718;BME280;32448;44.960;-0.698;2022-08-21T02:07:07;101553.94;;;18.60;100.00
46718;BME280;32448;44.960;-0.698;2022-08-21T02:09:33;101553.97;;;18.49;100.00
46718;BME280;32448;44.960;-0.698;2022-08-21T02:11:59;101535.47;;;18.40;100.00
46718;BME280;32448;44.960;-0.698;2022-08-21T02:14:24;101546.94;;;18.43;100.00
46718;BME280;32448;44.960;-0.698;2022-08-21T02:16:50;101528.41;;;18.36;100.00
46718;BME280;32448;44.960;-0.698;2022-08-21T02:19:16;101518.72;;;18.33;100.00
46718;BME280;32448;44.960;-0.698;2022-08-21T02:21:43;101530.19;;;18.31;100.00
46718;BME280;32448;44.960;-0.698;2022-08-21T02:24:09;101538.13;;;18.32;100.00
46718;BME280;32448;44.960;-0.698;2022-08-21T02:26:35;101522.28;;;18.15;100.00
46718;BME280;32448;44.960;-0.698;2022-08-21T02:29:01;101529.34;;;18.12;100.00
46718;BME280;32448;44.960;-0.698;2022-08-21T02:31:26;101548.75;;;18.22;100.00
46718;BME280;32448;44.960;-0.698;2022-08-21T02:33:52;101546.97;;;18.16;100.00
46718;BME280;32448;44.960;-0.698;2022-08-21T02:36:18;101554.91;;;18.13;100.00
46718;BME280;32448;44.960;-0.698;2022-08-21T02:38:44;101556.69;;;18.14;100.00
46718;BME280;32448;44.960;-0.698;2022-08-21T02:41:14;101546.09;;;18.03;100.00
46718;BME280;32448;44.960;-0.698;2022-08-21T02:43:40;101539.09;;;17.89;100.00
46718;BME280;32448;44.960;-0.698;2022-08-21T02:46:08;101547.91;;;17.86;100.00
46718;BME280;32448;44.960;-0.698;2022-08-21T02:48:35;101548.78;;;17.87;100.00
46718;BME280;32448;44.960;-0.698;2022-08-21T02:51:13;101547.88;;;17.91;100.00
46718;BME280;32448;44.960;-0.698;2022-08-21T02:53:39;101543.47;;;17.82;100.00
46718;BME280;32448;44.960;-0.698;2022-08-21T02:56:07;101545.25;;;17.83;100.00
46718;BME280;32448;44.960;-0.698;2022-08-21T02:58:36;101542.63;;;17.86;100.00
46718;BME280;32448;44.960;-0.698;2022-08-21T03:01:05;101534.69;;;17.77;100.00
46718;BME280;32448;44.960;-0.698;2022-08-21T03:03:33;101543.50;;;17.74;100.00
46718;BME280;32448;44.960;-0.698;2022-08-21T03:06:00;101535.53;;;17.68;100.00
46718;BME280;32448;44.960;-0.698;2022-08-21T03:08:26;101533.81;;;17.63;100.00
46718;BME280;32448;44.960;-0.698;2022-08-21T03:10:52;101541.72;;;17.69;100.00
46718;BME280;32448;44.960;-0.698;2022-08-21T03:13:19;101521.44;;;17.62;100.00
46718;BME280;32448;44.960;-0.698;2022-08-21T03:15:47;101523.19;;;17.52;100.00
46718;BME280;32448;44.960;-0.698;2022-08-21T03:18:13;101532.00;;;17.59;100.00
46718;BME280;32448;44.960;-0.698;2022-08-21T03:20:40;101536.38;;;17.57;100.00
46718;BME280;32448;44.960;-0.698;2022-08-21T03:23:07;101531.09;;;17.46;100.00
46718;BME280;32448;44.960;-0.698;2022-08-21T03:25:34;101494.97;;;17.21;100.00
46718;BME280;32448;44.960;-0.698;2022-08-21T03:28:01;101534.63;;;17.42;100.00
46718;BME280;32448;44.960;-0.698;2022-08-21T03:30:28;101530.22;;;17.33;100.00
46718;BME280;32448;44.960;-0.698;2022-08-21T03:32:53;101534.63;;;17.30;100.00
46718;BME280;32448;44.960;-0.698;2022-08-21T03:35:20;101531.09;;;17.28;100.00
46718;BME280;32448;44.960;-0.698;2022-08-21T03:37:46;101527.56;;;17.30;100.00
46718;BME280;32448;44.960;-0.698;2022-08-21T03:40:14;101524.06;;;17.22;100.00
46718;BME280;32448;44.960;-0.698;2022-08-21T03:42:40;101528.44;;;17.29;100.00
46718;BME280;32448;44.960;-0.698;2022-08-21T03:45:06;101519.63;;;17.18;100.00
46718;BME280;32448;44.960;-0.698;2022-08-21T03:47:32;101525.81;;;17.20;100.00
46718;BME280;32448;44.960;-0.698;2022-08-21T03:49:58;101520.50;;;17.19;100.00
46718;BME280;32448;44.960;-0.698;2022-08-21T03:52:25;101517.81;;;17.03;100.00
46718;BME280;32448;44.960;-0.698;2022-08-21T03:54:50;101522.22;;;17.01;100.00
46718;BME280;32448;44.960;-0.698;2022-08-21T03:57:17;101494.03;;;16.87;100.00
46718;BME280;32448;44.960;-0.698;2022-08-21T03:59:43;101521.34;;;16.96;100.00
46718;BME280;32448;44.960;-0.698;2022-08-21T04:02:10;101532.75;;;16.91;100.00
46718;BME280;32448;44.960;-0.698;2022-08-21T04:04:36;101532.78;;;16.89;100.00
46718;BME280;32448;44.960;-0.698;2022-08-21T04:07:02;101527.50;;;16.98;100.00
46718;BME280;32448;44.960;-0.698;2022-08-21T04:09:27;101531.91;;;17.04;100.00
46718;BME280;32448;44.960;-0.698;2022-08-21T04:11:53;101527.47;;;16.86;100.00
46718;BME280;32448;44.960;-0.698;2022-08-21T04:14:19;101535.41;;;16.89;100.00
46718;BME280;32448;44.960;-0.698;2022-08-21T04:16:45;101544.19;;;16.91;100.00
46718;BME280;32448;44.960;-0.698;2022-08-21T04:19:12;101538.03;;;16.86;100.00
46718;BME280;32448;44.960;-0.698;2022-08-21T04:21:41;101539.78;;;16.78;100.00
46718;BME280;32448;44.960;-0.698;2022-08-21T04:24:08;101545.88;;;16.66;100.00
46718;BME280;32448;44.960;-0.698;2022-08-21T04:26:36;101557.31;;;16.64;100.00
46718;BME280;32448;44.960;-0.698;2022-08-21T04:29:03;101555.56;;;16.66;100.00
46718;BME280;32448;44.960;-0.698;2022-08-21T04:31:32;101550.28;;;16.66;100.00
46718;BME280;32448;44.960;-0.698;2022-08-21T04:33:58;101556.41;;;16.68;100.00
46718;BME280;32448;44.960;-0.698;2022-08-21T04:36:24;101551.09;;;16.60;100.00
46718;BME280;32448;44.960;-0.698;2022-08-21T04:38:49;101550.19;;;16.52;100.00
46718;BME280;32448;44.960;-0.698;2022-08-21T04:41:15;101558.09;;;16.58;100.00
46718;BME280;32448;44.960;-0.698;2022-08-21T04:43:41;101565.16;;;16.55;100.00
46718;BME280;32448;44.960;-0.698;2022-08-21T04:46:07;101564.25;;;16.51;100.00
46718;BME280;32448;44.960;-0.698;2022-08-21T04:48:33;101552.81;;;16.51;100.00
46718;BME280;32448;44.960;-0.698;2022-08-21T04:53:46;101550.13;;;16.48;100.00
46718;BME280;32448;44.960;-0.698;2022-08-21T04:56:25;101552.81;;;16.51;100.00
46718;BME280;32448;44.960;-0.698;2022-08-21T04:58:58;101556.31;;;16.50;100.00
46718;BME280;32448;44.960;-0.698;2022-08-21T05:01:27;101563.31;;;16.48;100.00
46718;BME280;32448;44.960;-0.698;2022-08-21T05:03:56;101558.03;;;16.46;100.00
46718;BME280;32448;44.960;-0.698;2022-08-21T05:06:24;101565.94;;;16.42;100.00
46718;BME280;32448;44.960;-0.698;2022-08-21T05:08:53;101576.50;;;16.46;100.00
46718;BME280;32448;44.960;-0.698;2022-08-21T05:11:21;101579.09;;;16.37;100.00
46718;BME280;32448;44.960;-0.698;2022-08-21T05:13:48;101579.09;;;16.31;100.00
46718;BME280;32448;44.960;-0.698;2022-08-21T05:16:14;101546.41;;;16.11;100.00
46718;BME280;32448;44.960;-0.698;2022-08-21T05:18:42;101579.09;;;16.34;100.00
46718;BME280;32448;44.960;-0.698;2022-08-21T05:21:08;101579.97;;;16.33;100.00
46718;BME280;32448;44.960;-0.698;2022-08-21T05:23:35;101558.81;;;16.22;100.00
46718;BME280;32448;44.960;-0.698;2022-08-21T05:26:01;101570.28;;;16.30;100.00
46718;BME280;32448;44.960;-0.698;2022-08-21T05:28:27;101561.47;;;16.28;100.00
46718;BME280;32448;44.960;-0.698;2022-08-21T05:30:53;101560.59;;;16.29;100.00
46718;BME280;32448;44.960;-0.698;2022-08-21T05:33:19;101577.34;;;16.34;100.00
46718;BME280;32448;44.960;-0.698;2022-08-21T05:35:44;101578.22;;;16.35;100.00
46718;BME280;32448;44.960;-0.698;2022-08-21T05:38:10;101572.06;;;16.37;100.00
46718;BME280;32448;44.960;-0.698;2022-08-21T05:40:36;101557.06;;;16.27;100.00
46718;BME280;32448;44.960;-0.698;2022-08-21T05:43:02;101575.63;;;16.43;100.00
46718;BME280;32448;44.960;-0.698;2022-08-21T05:45:31;101565.03;;;16.38;100.00
46718;BME280;32448;44.960;-0.698;2022-08-21T05:47:57;101590.66;;;16.56;100.00
46718;BME280;32448;44.960;-0.698;2022-08-21T05:50:22;101588.91;;;16.58;100.00
46718;BME280;32448;44.960;-0.698;2022-08-21T05:52:48;101577.47;;;16.59;100.00
46718;BME280;32448;44.960;-0.698;2022-08-21T05:55:14;101588.09;;;16.63;100.00
46718;BME280;32448;44.960;-0.698;2022-08-21T05:57:39;101580.97;;;16.58;100.00
46718;BME280;32448;44.960;-0.698;2022-08-21T06:00:08;101584.63;;;16.67;100.00
46718;BME280;32448;44.960;-0.698;2022-08-21T06:02:35;101581.94;;;16.69;100.00
46718;BME280;32448;44.960;-0.698;2022-08-21T06:05:01;101581.97;;;16.70;100.00
46718;BME280;32448;44.960;-0.698;2022-08-21T06:07:26;101584.66;;;16.78;100.00
46718;BME280;32448;44.960;-0.698;2022-08-21T06:09:52;101593.47;;;16.85;100.00
46718;BME280;32448;44.960;-0.698;2022-08-21T06:12:17;101597.91;;;16.87;100.00
46718;BME280;32448;44.960;-0.698;2022-08-21T06:14:43;101589.13;;;16.96;100.00
46718;BME280;32448;44.960;-0.698;2022-08-21T06:17:11;101585.59;;;16.97;100.00
46718;BME280;32448;44.960;-0.698;2022-08-21T06:19:38;101589.19;;;17.09;100.00
46718;BME280;32448;44.960;-0.698;2022-08-21T06:22:04;101582.16;;;17.19;100.00
46718;BME280;32448;44.960;-0.698;2022-08-21T06:24:30;101572.47;;;17.26;100.00
46718;BME280;32448;44.960;-0.698;2022-08-21T06:26:56;101586.59;;;17.31;100.00
46718;BME280;32448;44.960;-0.698;2022-08-21T06:29:23;101563.69;;;17.28;100.00
46718;BME280;32448;44.960;-0.698;2022-08-21T06:31:50;101585.75;;;17.44;100.00
46718;BME280;32448;44.960;-0.698;2022-08-21T06:34:16;101576.94;;;17.54;100.00
46718;BME280;32448;44.960;-0.698;2022-08-21T06:36:42;101591.94;;;17.61;100.00
46718;BME280;32448;44.960;-0.698;2022-08-21T06:39:08;101598.16;;;17.66;100.00
46718;BME280;32448;44.960;-0.698;2022-08-21T06:41:34;101577.81;;;17.50;100.00
46718;BME280;32448;44.960;-0.698;2022-08-21T06:44:00;101584.88;;;17.62;100.00
46718;BME280;32448;44.960;-0.698;2022-08-21T06:46:28;101600.78;;;17.74;100.00
46718;BME280;32448;44.960;-0.698;2022-08-21T06:48:54;101600.78;;;17.85;100.00
46718;BME280;32448;44.960;-0.698;2022-08-21T06:51:20;101584.06;;;17.86;100.00
46718;BME280;32448;44.960;-0.698;2022-08-21T06:53:46;101592.00;;;17.98;100.00
46718;BME280;32448;44.960;-0.698;2022-08-21T06:56:12;101586.69;;;18.04;100.00
46718;BME280;32448;44.960;-0.698;2022-08-21T06:58:38;101592.84;;;18.12;100.00
46718;BME280;32448;44.960;-0.698;2022-08-21T07:01:04;101581.38;;;18.14;100.00
46718;BME280;32448;44.960;-0.698;2022-08-21T07:03:36;101599.88;;;18.28;100.00
46718;BME280;32448;44.960;-0.698;2022-08-21T07:06:03;101591.94;;;18.31;100.00
46718;BME280;32448;44.960;-0.698;2022-08-21T07:08:29;101596.34;;;18.41;100.00
46718;BME280;32448;44.960;-0.698;2022-08-21T07:10:56;101606.91;;;18.58;100.00
46718;BME280;32448;44.960;-0.698;2022-08-21T07:13:22;101602.47;;;18.74;100.00
46718;BME280;32448;44.960;-0.698;2022-08-21T07:15:48;101605.06;;;18.86;100.00
46718;BME280;32448;44.960;-0.698;2022-08-21T07:18:14;101597.09;;;18.98;100.00
46718;BME280;32448;44.960;-0.698;2022-08-21T07:20:41;101595.25;;;19.08;100.00
46718;BME280;32448;44.960;-0.698;2022-08-21T07:23:10;101602.28;;;19.21;100.00
46718;BME280;32448;44.960;-0.698;2022-08-21T07:25:37;101583.72;;;19.16;100.00
46718;BME280;32448;44.960;-0.698;2022-08-21T07:28:03;101594.25;;;19.32;100.00
46718;BME280;32448;44.960;-0.698;2022-08-21T07:30:29;101606.53;;;19.52;100.00
46718;BME280;32448;44.960;-0.698;2022-08-21T07:32:54;101604.69;;;19.62;100.00
46718;BME280;32448;44.960;-0.698;2022-08-21T07:35:21;101611.72;;;19.69;100.00
46718;BME280;32448;44.960;-0.698;2022-08-21T07:37:46;101614.31;;;19.77;100.00
46718;BME280;32448;44.960;-0.698;2022-08-21T07:40:13;101619.59;;;19.78;100.00
46718;BME280;32448;44.960;-0.698;2022-08-21T07:42:42;101624.00;;;19.81;100.00
46718;BME280;32448;44.960;-0.698;2022-08-21T07:45:09;101616.94;;;19.80;100.00
46718;BME280;32448;44.960;-0.698;2022-08-21T07:47:35;101627.38;;;19.99;100.00
46718;BME280;32448;44.960;-0.698;2022-08-21T07:50:01;101618.53;;;20.00;100.00
46718;BME280;32448;44.960;-0.698;2022-08-21T07:52:27;101623.81;;;20.04;100.00
46718;BME280;32448;44.960;-0.698;2022-08-21T07:54:52;101613.19;;;20.10;100.00
46718;BME280;32448;44.960;-0.698;2022-08-21T07:57:21;101612.97;;;20.29;100.00
46718;BME280;32448;44.960;-0.698;2022-08-21T07:59:46;101610.28;;;20.35;100.00
46718;BME280;32448;44.960;-0.698;2022-08-21T08:02:22;101607.63;;;20.32;100.00
46718;BME280;32448;44.960;-0.698;2022-08-21T08:04:48;101607.59;;;20.42;100.00
46718;BME280;32448;44.960;-0.698;2022-08-21T08:07:14;101610.94;;;20.59;100.00
46718;BME280;32448;44.960;-0.698;2022-08-21T08:09:40;101601.78;;;20.84;100.00
46718;BME280;32448;44.960;-0.698;2022-08-21T08:12:06;101599.75;;;21.06;100.00
46718;BME280;32448;44.960;-0.698;2022-08-21T08:14:31;101595.19;;;21.16;100.00
46718;BME280;32448;44.960;-0.698;2022-08-21T08:16:57;101598.63;;;21.24;100.00
46718;BME280;32448;44.960;-0.698;2022-08-21T08:19:23;101595.13;;;21.22;100.00
46718;BME280;32448;44.960;-0.698;2022-08-21T08:21:48;101610.31;;;21.11;100.00
46718;BME280;32448;44.960;-0.698;2022-08-21T08:24:14;101613.81;;;21.14;100.00
46718;BME280;32448;44.960;-0.698;2022-08-21T08:26:40;101621.03;;;21.04;100.00
46718;BME280;32448;44.960;-0.698;2022-08-21T08:29:05;101604.28;;;20.98;100.00
46718;BME280;32448;44.960;-0.698;2022-08-21T08:31:31;101604.09;;;21.10;100.00
46718;BME280;32448;44.960;-0.698;2022-08-21T08:33:56;101607.47;;;21.26;100.00
46718;BME280;32448;44.960;-0.698;2022-08-21T08:36:32;101608.25;;;21.32;100.00
46718;BME280;32448;44.960;-0.698;2022-08-21T08:38:58;101607.28;;;21.39;100.00
46718;BME280;32448;44.960;-0.698;2022-08-21T08:41:24;101601.84;;;21.49;100.00
46718;BME280;32448;44.960;-0.698;2022-08-21T08:43:54;101594.78;;;21.44;96.18
46718;BME280;32448;44.960;-0.698;2022-08-21T08:46:33;101599.75;;;21.67;98.58
46718;BME280;32448;44.960;-0.698;2022-08-21T08:49:08;101591.69;;;21.73;96.30
46718;BME280;32448;44.960;-0.698;2022-08-21T08:51:46;101591.28;;;21.99;93.52
46718;BME280;32448;44.960;-0.698;2022-08-21T08:54:19;101607.03;;;22.13;90.71
46718;BME280;32448;44.960;-0.698;2022-08-21T08:56:46;101608.72;;;22.19;90.73
46718;BME280;32448;44.960;-0.698;2022-08-21T08:59:22;101605.34;;;22.09;90.29
46718;BME280;32448;44.960;-0.698;2022-08-21T09:01:51;101607.19;;;22.05;94.17
46718;BME280;32448;44.960;-0.698;2022-08-21T09:04:22;101603.63;;;22.05;93.46
46718;BME280;32448;44.960;-0.698;2022-08-21T09:15:23;101608.34;;;22.38;92.91
46718;BME280;32448;44.960;-0.698;2022-08-21T09:27:13;101619.78;;;22.43;93.38
46718;BME280;32448;44.960;-0.698;2022-08-21T09:29:45;101626.91;;;22.43;91.45
46718;BME280;32448;44.960;-0.698;2022-08-21T09:32:19;101640.16;;;22.47;88.38
46718;BME280;32448;44.960;-0.698;2022-08-21T09:35:18;101630.56;;;22.39;89.70
46718;BME280;32448;44.960;-0.698;2022-08-21T09:40:37;101617.78;;;22.56;90.25
46718;BME280;32448;44.960;-0.698;2022-08-21T09:43:10;101640.09;;;22.52;90.88
46718;BME280;32448;44.960;-0.698;2022-08-21T09:45:43;101626.69;;;22.55;86.83
46718;BME280;32448;44.960;-0.698;2022-08-21T09:48:22;101620.78;;;22.39;87.10
46718;BME280;32448;44.960;-0.698;2022-08-21T09:50:49;101630.34;;;22.51;91.47
46718;BME280;32448;44.960;-0.698;2022-08-21T09:55:58;101631.97;;;22.58;87.74
46718;BME280;32448;44.960;-0.698;2022-08-21T09:58:47;101622.31;;;22.52;85.61
46718;BME280;32448;44.960;-0.698;2022-08-21T10:01:21;101630.34;;;22.49;90.55
46718;BME280;32448;44.960;-0.698;2022-08-21T10:03:49;101623.91;;;22.61;83.08
46718;BME280;32448;44.960;-0.698;2022-08-21T10:06:28;101632.09;;;22.52;85.99
46718;BME280;32448;44.960;-0.698;2022-08-21T10:09:15;101613.44;;;22.52;86.53
46718;BME280;32448;44.960;-0.698;2022-08-21T10:11:49;101629.13;;;22.66;85.13
46718;BME280;32448;44.960;-0.698;2022-08-21T10:14:43;101632.47;;;22.78;84.39
46718;BME280;32448;44.960;-0.698;2022-08-21T10:25:18;101619.88;;;22.86;75.41
46718;BME280;32448;44.960;-0.698;2022-08-21T10:30:23;101617.50;;;22.71;78.88
46718;BME280;32448;44.960;-0.698;2022-08-21T10:41:13;101614.13;;;23.08;81.99
46718;BME280;32448;44.960;-0.698;2022-08-21T10:44:04;101614.69;;;23.22;76.18
46718;BME280;32448;44.960;-0.698;2022-08-21T10:52:28;101613.66;;;23.29;76.37
46718;BME280;32448;44.960;-0.698;2022-08-21T11:00:09;101600.50;;;23.20;75.34
46718;BME280;32448;44.960;-0.698;2022-08-21T11:02:52;101601.00;;;23.37;77.68
46718;BME280;32448;44.960;-0.698;2022-08-21T11:05:27;101598.38;;;23.36;74.90
46718;BME280;32448;44.960;-0.698;2022-08-21T11:08:02;101597.78;;;23.23;73.33
46718;BME280;32448;44.960;-0.698;2022-08-21T11:10:39;101599.09;;;23.42;76.51
46718;BME280;32448;44.960;-0.698;2022-08-21T11:16:07;101565.81;;;23.60;75.99
46718;BME280;32448;44.960;-0.698;2022-08-21T11:18:43;101586.88;;;23.72;74.93
46718;BME280;32448;44.960;-0.698;2022-08-21T11:24:03;101590.56;;;24.02;75.11
46718;BME280;32448;44.960;-0.698;2022-08-21T11:26:50;101587.50;;;24.17;69.89
46718;BME280;32448;44.960;-0.698;2022-08-21T11:29:24;101593.84;;;24.13;70.72
46718;BME280;32448;44.960;-0.698;2022-08-21T11:31:58;101590.97;;;24.21;70.93
46718;BME280;32448;44.960;-0.698;2022-08-21T11:34:36;101587.41;;;24.22;70.49
46718;BME280;32448;44.960;-0.698;2022-08-21T11:37:17;101583.56;;;24.32;72.30
46718;BME280;32448;44.960;-0.698;2022-08-21T11:48:13;101569.19;;;24.68;68.37
46718;BME280;32448;44.960;-0.698;2022-08-21T11:50:43;101561.84;;;24.75;68.66
46718;BME280;32448;44.960;-0.698;2022-08-21T11:56:16;101570.88;;;24.73;65.92
46718;BME280;32448;44.960;-0.698;2022-08-21T11:58:51;101568.28;;;24.70;64.07
46718;BME280;32448;44.960;-0.698;2022-08-21T12:01:42;101558.81;;;24.58;65.24
46718;BME280;32448;44.960;-0.698;2022-08-21T12:04:34;101556.47;;;24.46;66.15
46718;BME280;32448;44.960;-0.698;2022-08-21T12:07:12;101548.22;;;24.53;67.05
46718;BME280;32448;44.960;-0.698;2022-08-21T12:09:39;101517.22;;;24.48;64.93
46718;BME280;32448;44.960;-0.698;2022-08-21T12:12:11;101559.97;;;24.79;64.64
46718;BME280;32448;44.960;-0.698;2022-08-21T12:14:44;101562.00;;;24.71;64.45
46718;BME280;32448;44.960;-0.698;2022-08-21T12:17:21;101560.84;;;24.79;66.14
46718;BME280;32448;44.960;-0.698;2022-08-21T12:23:01;101549.97;;;25.16;65.72
46718;BME280;32448;44.960;-0.698;2022-08-21T12:25:37;101543.81;;;24.83;61.47
46718;BME280;32448;44.960;-0.698;2022-08-21T12:28:10;101550.09;;;25.12;64.57
46718;BME280;32448;44.960;-0.698;2022-08-21T12:34:00;101561.78;;;25.37;61.18
46718;BME280;32448;44.960;-0.698;2022-08-21T12:36:44;101566.94;;;25.43;59.91
46718;BME280;32448;44.960;-0.698;2022-08-21T12:39:26;101545.81;;;25.34;61.24
46718;BME280;32448;44.960;-0.698;2022-08-21T12:42:11;101567.09;;;25.38;59.33
46718;BME280;32448;44.960;-0.698;2022-08-21T12:45:00;101551.13;;;25.35;59.94
46718;BME280;32448;44.960;-0.698;2022-08-21T12:47:43;101534.88;;;25.14;58.46
46718;BME280;32448;44.960;-0.698;2022-08-21T12:50:19;101553.56;;;25.43;59.86
46718;BME280;32448;44.960;-0.698;2022-08-21T12:52:56;101552.94;;;25.63;60.74
46718;BME280;32448;44.960;-0.698;2022-08-21T12:55:29;101554.84;;;25.86;61.96
46718;BME280;32448;44.960;-0.698;2022-08-21T12:57:56;101554.97;;;25.83;58.89
46718;BME280;32448;44.960;-0.698;2022-08-21T13:00:24;101540.84;;;25.78;58.02
46718;BME280;32448;44.960;-0.698;2022-08-21T13:02:51;101526.19;;;26.14;58.83
46718;BME280;32448;44.960;-0.698;2022-08-21T13:05:36;101541.28;;;26.17;56.95
46718;BME280;32448;44.960;-0.698;2022-08-21T13:08:07;101547.25;;;25.98;56.50
46718;BME280;32448;44.960;-0.698;2022-08-21T13:10:36;101544.75;;;25.94;58.31
46718;BME280;32448;44.960;-0.698;2022-08-21T13:13:05;101547.25;;;25.98;58.55
46718;BME280;32448;44.960;-0.698;2022-08-21T13:15:34;101537.69;;;25.91;59.33
46718;BME280;32448;44.960;-0.698;2022-08-21T13:18:04;101541.72;;;25.78;59.07
46718;BME280;32448;44.960;-0.698;2022-08-21T13:20:31;101525.13;;;25.93;60.08
46718;BME280;32448;44.960;-0.698;2022-08-21T13:22:58;101522.91;;;26.06;57.58
46718;BME280;32448;44.960;-0.698;2022-08-21T13:25:30;101530.13;;;26.04;56.59
46718;BME280;32448;44.960;-0.698;2022-08-21T13:28:09;101519.25;;;26.07;58.32
46718;BME280;32448;44.960;-0.698;2022-08-21T13:30:43;101514.72;;;26.09;57.33
46718;BME280;32448;44.960;-0.698;2022-08-21T13:33:11;101523.09;;;26.00;55.59
46718;BME280;32448;44.960;-0.698;2022-08-21T13:38:25;101519.53;;;26.51;58.06
46718;BME280;32448;44.960;-0.698;2022-08-21T13:41:04;101512.94;;;26.59;55.07
46718;BME280;32448;44.960;-0.698;2022-08-21T13:43:35;101515.66;;;26.81;56.04
46718;BME280;32448;44.960;-0.698;2022-08-21T13:46:06;101506.69;;;26.82;53.49
46718;BME280;32448;44.960;-0.698;2022-08-21T13:48:34;101502.28;;;27.04;53.75
46718;BME280;32448;44.960;-0.698;2022-08-21T13:51:00;101503.28;;;27.24;53.15
46718;BME280;32448;44.960;-0.698;2022-08-21T13:53:34;101499.28;;;27.12;51.44
46718;BME280;32448;44.960;-0.698;2022-08-21T13:56:01;101496.03;;;26.80;52.92
46718;BME280;32448;44.960;-0.698;2022-08-21T13:58:31;101498.75;;;26.56;53.26
46718;BME280;32448;44.960;-0.698;2022-08-21T14:01:00;101493.63;;;26.50;54.52
46718;BME280;32448;44.960;-0.698;2022-08-21T14:03:41;101486.44;;;26.73;53.41
46718;BME280;32448;44.960;-0.698;2022-08-21T14:06:16;101496.22;;;26.51;53.21
46718;BME280;32448;44.960;-0.698;2022-08-21T14:08:50;101485.66;;;26.48;54.78